Time;durP1;ratioP1;P1;durP2;ratioP2;P2;SDS_P1;SDS_P2;PMS_P1;PMS_P2;Temp;Humidity;BMP_temperature;BMP_pressure;BME280_temperature;BME280_humidity;BME280_pressure;Samples;Min_cycle;Max_cycle;Signal;HPM_P1;HPM_P2
2022/06/03 00:02:51;;;;;;;0.68;0.68;;;;;;;;;;5028874;27;20240;-59
2022/06/03 00:05:32;;;;;;;0.57;0.57;;;;;;;;;;4979143;28;20218;-59
2022/06/03 00:08:11;;;;;;;0.85;0.85;;;;;;;;;;5028760;27;20246;-59
2022/06/03 00:11:00;;;;;;;0.50;0.50;;;;;;;;;;5036779;27;20253;-59
2022/06/03 00:13:33;;;;;;;0.80;0.80;;;;;;;;;;5031465;27;20197;-59
2022/06/03 00:16:08;;;;;;;0.47;0.47;;;;;;;;;;5037321;27;20204;-60
2022/06/03 00:18:41;;;;;;;1.17;0.60;;;;;;;;;;5027063;28;20215;-59
2022/06/03 00:21:11;;;;;;;0.60;0.60;;;;;;;;;;5022960;28;20205;-59
2022/06/03 00:23:48;;;;;;;0.60;0.60;;;;;;;;;;5026939;27;20192;-60
2022/06/03 00:26:22;;;;;;;0.70;0.70;;;;;;;;;;5025796;27;20238;-59
2022/06/03 00:28:55;;;;;;;1.05;0.70;;;;;;;;;;5033412;27;20204;-59
2022/06/03 00:31:31;;;;;;;0.73;0.70;;;;;;;;;;5022364;28;20750;-60
2022/06/03 00:34:07;;;;;;;0.77;0.47;;;;;;;;;;5021958;28;20211;-60
2022/06/03 00:36:48;;;;;;;0.60;0.60;;;;;;;;;;5024471;28;20683;-59
2022/06/03 00:39:24;;;;;;;0.68;0.68;;;;;;;;;;5048221;27;20216;-59
2022/06/03 00:42:02;;;;;;;0.60;0.60;;;;;;;;;;5024738;28;20210;-59
2022/06/03 00:44:53;;;;;;;0.47;0.47;;;;;;;;;;5034220;28;20236;-59
2022/06/03 00:47:32;;;;;;;0.70;0.70;;;;;;;;;;5005030;28;20205;-59
2022/06/03 00:50:10;;;;;;;0.98;0.60;;;;;;;;;;5040883;28;20205;-59
2022/06/03 00:52:47;;;;;;;0.60;0.60;;;;;;;;;;5024424;28;20219;-59
2022/06/03 00:55:36;;;;;;;0.60;0.60;;;;;;;;;;5025251;28;20200;-59
2022/06/03 00:58:10;;;;;;;0.60;0.60;;;;;;;;;;5008642;28;20208;-59
2022/06/03 01:00:40;;;;;;;0.90;0.90;;;;;;;;;;5023786;28;20206;-59
2022/06/03 01:03:15;;;;;;;0.70;0.70;;;;;;;;;;5028868;28;20197;-59
2022/06/03 01:05:55;;;;;;;0.70;0.70;;;;;;;;;;5042315;28;20238;-59
2022/06/03 01:08:27;;;;;;;0.85;0.85;;;;;;;;;;5025993;28;20672;-59
2022/06/03 01:11:05;;;;;;;0.60;0.60;;;;;;;;;;5023956;28;20212;-59
2022/06/03 01:13:39;;;;;;;0.60;0.60;;;;;;;;;;5032923;28;20792;-59
2022/06/03 01:16:16;;;;;;;0.50;0.50;;;;;;;;;;5022402;28;20671;-58
2022/06/03 01:18:48;;;;;;;0.70;0.70;;;;;;;;;;5030884;28;20200;-59
2022/06/03 01:21:19;;;;;;;0.60;0.60;;;;;;;;;;5025059;28;20205;-59
2022/06/03 01:24:12;;;;;;;0.60;0.60;;;;;;;;;;5024254;28;20232;-59
2022/06/03 01:26:49;;;;;;;0.70;0.70;;;;;;;;;;5026224;28;20220;-59
2022/06/03 01:29:27;;;;;;;0.70;0.70;;;;;;;;;;5031342;28;20215;-59
2022/06/03 01:32:13;;;;;;;0.70;0.70;;;;;;;;;;5083438;27;20574;-59
2022/06/03 01:34:48;;;;;;;0.70;0.70;;;;;;;;;;5043957;27;20201;-59
2022/06/03 01:37:17;;;;;;;1.23;0.80;;;;;;;;;;5043440;27;21077;-59
2022/06/03 01:39:53;;;;;;;0.70;0.70;;;;;;;;;;5047874;27;20207;-59
2022/06/03 01:42:32;;;;;;;0.68;0.68;;;;;;;;;;5007015;28;20220;-59
2022/06/03 01:45:10;;;;;;;0.70;0.70;;;;;;;;;;5027470;28;20240;-59
2022/06/03 01:47:51;;;;;;;0.60;0.60;;;;;;;;;;5128928;27;20223;-59
2022/06/03 01:50:28;;;;;;;0.60;0.60;;;;;;;;;;5047562;27;20200;-59
2022/06/03 01:53:07;;;;;;;0.73;0.70;;;;;;;;;;5131610;27;20285;-59
2022/06/03 01:55:48;;;;;;;2.42;0.77;;;;;;;;;;5030050;27;20223;-59
2022/06/03 01:58:26;;;;;;;0.70;0.63;;;;;;;;;;5049117;27;20209;-59
2022/06/03 02:00:59;;;;;;;0.67;0.67;;;;;;;;;;5103868;27;20208;-59
2022/06/03 02:03:33;;;;;;;0.60;0.60;;;;;;;;;;5090293;27;20216;-60
2022/06/03 02:06:18;;;;;;;0.60;0.60;;;;;;;;;;5044198;27;20274;-59
2022/06/03 02:09:02;;;;;;;0.70;0.70;;;;;;;;;;5029580;27;20638;-59
2022/06/03 02:11:41;;;;;;;0.87;0.87;;;;;;;;;;5028468;27;20216;-59
2022/06/03 02:14:28;;;;;;;0.70;0.70;;;;;;;;;;5031469;27;20205;-59
2022/06/03 02:17:09;;;;;;;0.63;0.63;;;;;;;;;;5132106;27;20700;-59
2022/06/03 02:19:51;;;;;;;0.80;0.80;;;;;;;;;;5030054;27;20209;-59
2022/06/03 02:22:26;;;;;;;1.93;0.87;;;;;;;;;;5048084;27;20204;-59
2022/06/03 02:25:08;;;;;;;0.85;0.85;;;;;;;;;;5024947;27;20204;-59
2022/06/03 02:27:50;;;;;;;0.70;0.70;;;;;;;;;;5049816;27;20220;-59
2022/06/03 02:30:30;;;;;;;1.00;1.00;;;;;;;;;;5069799;27;20212;-59
2022/06/03 02:33:25;;;;;;;0.52;0.52;;;;;;;;;;5027354;28;20232;-59
2022/06/03 02:36:19;;;;;;;0.80;0.80;;;;;;;;;;5103622;27;20217;-60
2022/06/03 02:38:51;;;;;;;0.60;0.60;;;;;;;;;;5063343;27;20209;-59
2022/06/03 02:41:51;;;;;;;0.77;0.67;;;;;;;;;;5062394;27;20198;-59
2022/06/03 02:44:33;;;;;;;1.20;0.68;;;;;;;;;;5038977;28;20240;-59
2022/06/03 02:47:06;;;;;;;0.63;0.63;;;;;;;;;;5023147;28;20235;-60
2022/06/03 02:49:48;;;;;;;0.70;0.70;;;;;;;;;;5069420;27;20317;-57
2022/06/03 02:52:24;;;;;;;0.60;0.60;;;;;;;;;;5068912;27;20239;-58
2022/06/03 02:55:15;;;;;;;0.80;0.80;;;;;;;;;;5051021;27;20212;-58
2022/06/03 02:57:47;;;;;;;0.60;0.60;;;;;;;;;;5027834;27;20216;-58
2022/06/03 03:00:18;;;;;;;1.03;0.90;;;;;;;;;;5028196;27;20211;-58
2022/06/03 03:03:00;;;;;;;0.60;0.60;;;;;;;;;;5104520;27;20205;-58
2022/06/03 03:05:40;;;;;;;0.80;0.80;;;;;;;;;;5029484;28;20595;-58
2022/06/03 03:08:22;;;;;;;0.68;0.68;;;;;;;;;;5027608;28;20239;-60
2022/06/03 03:10:56;;;;;;;0.70;0.70;;;;;;;;;;5089806;27;20205;-58
2022/06/03 03:13:35;;;;;;;1.52;0.90;;;;;;;;;;5107861;27;20205;-58
2022/06/03 03:16:17;;;;;;;0.90;0.90;;;;;;;;;;5129363;27;20197;-58
2022/06/03 03:19:09;;;;;;;0.90;0.90;;;;;;;;;;5080963;27;20232;-58
2022/06/03 03:21:48;;;;;;;0.70;0.70;;;;;;;;;;5114630;27;20212;-59
2022/06/03 03:24:27;;;;;;;0.60;0.60;;;;;;;;;;5079012;27;20204;-58
2022/06/03 03:26:57;;;;;;;0.70;0.70;;;;;;;;;;5057368;27;20221;-58
2022/06/03 03:29:41;;;;;;;0.60;0.60;;;;;;;;;;5037794;27;20221;-57
2022/06/03 03:32:19;;;;;;;0.80;0.80;;;;;;;;;;5114781;27;20584;-58
2022/06/03 03:34:58;;;;;;;0.70;0.70;;;;;;;;;;5044561;27;20204;-58
2022/06/03 03:37:36;;;;;;;2.58;0.90;;;;;;;;;;5026029;28;20225;-58
2022/06/03 03:40:22;;;;;;;0.70;0.70;;;;;;;;;;5025688;28;20216;-58
2022/06/03 03:43:13;;;;;;;0.80;0.80;;;;;;;;;;4986515;28;20209;-58
2022/06/03 03:45:49;;;;;;;0.82;0.82;;;;;;;;;;5054624;27;20224;-58
2022/06/03 03:48:29;;;;;;;0.70;0.70;;;;;;;;;;5041651;27;20234;-58
2022/06/03 03:51:03;;;;;;;0.70;0.70;;;;;;;;;;5049094;27;20204;-58
2022/06/03 03:53:45;;;;;;;0.80;0.80;;;;;;;;;;5025406;28;20217;-59
2022/06/03 03:56:32;;;;;;;0.70;0.70;;;;;;;;;;5035140;27;20205;-58
2022/06/03 03:59:23;;;;;;;0.97;0.80;;;;;;;;;;5028597;27;20339;-58
2022/06/03 04:02:01;;;;;;;0.83;0.83;;;;;;;;;;5076045;27;20732;-58
2022/06/03 04:04:53;;;;;;;0.73;0.73;;;;;;;;;;5017593;28;20215;-59
2022/06/03 04:07:38;;;;;;;1.00;1.00;;;;;;;;;;5083616;27;20229;-58
2022/06/03 04:10:17;;;;;;;0.70;0.70;;;;;;;;;;5088601;27;20220;-58
2022/06/03 04:13:07;;;;;;;0.80;0.80;;;;;;;;;;5074355;27;20223;-58
2022/06/03 04:15:58;;;;;;;0.82;0.82;;;;;;;;;;5029814;27;20205;-59
2022/06/03 04:18:44;;;;;;;0.70;0.70;;;;;;;;;;5026698;28;20216;-59
2022/06/03 04:21:29;;;;;;;0.77;0.77;;;;;;;;;;5043261;27;21013;-58
2022/06/03 04:24:15;;;;;;;0.85;0.85;;;;;;;;;;5075810;27;20212;-58
2022/06/03 04:26:50;;;;;;;0.80;0.80;;;;;;;;;;5075859;27;20235;-58
2022/06/03 04:29:36;;;;;;;0.70;0.70;;;;;;;;;;5104089;27;20200;-58
2022/06/03 04:32:18;;;;;;;0.90;0.88;;;;;;;;;;5096387;27;20193;-58
2022/06/03 04:35:06;;;;;;;0.60;0.60;;;;;;;;;;5070279;27;20204;-59
2022/06/03 04:37:49;;;;;;;0.70;0.70;;;;;;;;;;5025627;27;20228;-58
2022/06/03 04:40:35;;;;;;;0.70;0.70;;;;;;;;;;5055441;27;20223;-59
2022/06/03 04:43:25;;;;;;;0.73;0.73;;;;;;;;;;5045236;27;20204;-58
2022/06/03 04:49:17;;;;;;;0.77;0.77;;;;;;;;;;5121304;27;20284;-60
2022/06/03 04:52:03;;;;;;;0.70;0.70;;;;;;;;;;5089873;28;20699;-58
2022/06/03 04:54:57;;;;;;;1.75;0.95;;;;;;;;;;5099846;28;20245;-58
2022/06/03 04:57:42;;;;;;;1.38;0.80;;;;;;;;;;5046883;28;20280;-58
2022/06/03 05:00:16;;;;;;;0.80;0.80;;;;;;;;;;5103525;28;20209;-59
2022/06/03 05:02:55;;;;;;;0.73;0.73;;;;;;;;;;5092435;28;20254;-58
2022/06/03 05:05:40;;;;;;;0.70;0.70;;;;;;;;;;5100040;28;20198;-58
2022/06/03 05:08:25;;;;;;;0.70;0.70;;;;;;;;;;5101708;28;20236;-59
2022/06/03 05:11:07;;;;;;;0.60;0.60;;;;;;;;;;5092902;28;20202;-59
2022/06/03 05:13:59;;;;;;;2.17;0.80;;;;;;;;;;5106449;28;20209;-59
2022/06/03 05:16:45;;;;;;;0.80;0.80;;;;;;;;;;5099823;28;20262;-60
2022/06/03 05:19:27;;;;;;;0.70;0.70;;;;;;;;;;5102371;28;20202;-58
2022/06/03 05:22:10;;;;;;;1.35;0.65;;;;;;;;;;5095171;28;20297;-58
2022/06/03 05:24:52;;;;;;;0.70;0.70;;;;;;;;;;5102595;28;20641;-58
2022/06/03 05:27:33;;;;;;;0.90;0.90;;;;;;;;;;5105123;28;20225;-58
2022/06/03 05:30:12;;;;;;;0.80;0.80;;;;;;;;;;5102988;28;20210;-59
2022/06/03 05:32:53;;;;;;;2.17;1.40;;;;;;;;;;5100403;28;20202;-60
2022/06/03 05:35:38;;;;;;;0.68;0.68;;;;;;;;;;5097572;28;20197;-59
2022/06/03 05:38:12;;;;;;;0.80;0.80;;;;;;;;;;5087589;28;20202;-59
2022/06/03 05:40:46;;;;;;;1.50;0.93;;;;;;;;;;5093105;28;20679;-59
2022/06/03 05:43:20;;;;;;;0.85;0.60;;;;;;;;;;5094815;28;20205;-59
2022/06/03 05:46:08;;;;;;;0.73;0.73;;;;;;;;;;5103513;28;20212;-60
2022/06/03 05:48:43;;;;;;;4.47;0.70;;;;;;;;;;5100530;28;20264;-59
2022/06/03 05:51:15;;;;;;;0.93;0.80;;;;;;;;;;5122438;28;20220;-59
2022/06/03 05:53:46;;;;;;;0.60;0.60;;;;;;;;;;5125254;28;20217;-59
2022/06/03 05:56:25;;;;;;;0.70;0.70;;;;;;;;;;5125213;28;20209;-59
2022/06/03 05:58:54;;;;;;;1.95;0.77;;;;;;;;;;5104594;28;20206;-59
2022/06/03 06:01:30;;;;;;;0.70;0.70;;;;;;;;;;5091224;28;20225;-59
2022/06/03 06:04:01;;;;;;;0.70;0.70;;;;;;;;;;5090946;28;20217;-59
2022/06/03 06:06:36;;;;;;;0.70;0.70;;;;;;;;;;5089049;28;20888;-59
2022/06/03 06:09:19;;;;;;;0.82;0.68;;;;;;;;;;5090373;28;20228;-59
2022/06/03 06:11:52;;;;;;;0.70;0.70;;;;;;;;;;5089592;28;20210;-59
2022/06/03 06:14:30;;;;;;;0.63;0.63;;;;;;;;;;5081193;28;20718;-59
2022/06/03 06:16:58;;;;;;;0.60;0.60;;;;;;;;;;5090555;28;20198;-59
2022/06/03 06:19:35;;;;;;;0.70;0.70;;;;;;;;;;5090459;28;20210;-59
2022/06/03 06:22:09;;;;;;;0.68;0.68;;;;;;;;;;5090399;28;20205;-59
2022/06/03 06:24:51;;;;;;;0.75;0.70;;;;;;;;;;5090947;28;20221;-59
2022/06/03 06:27:33;;;;;;;0.68;0.68;;;;;;;;;;5090467;28;20799;-59
2022/06/03 06:30:11;;;;;;;1.27;0.80;;;;;;;;;;5090627;28;20206;-59
2022/06/03 06:32:45;;;;;;;0.65;0.65;;;;;;;;;;5090817;28;20213;-59
2022/06/03 06:35:26;;;;;;;0.80;0.80;;;;;;;;;;5090164;28;20263;-59
2022/06/03 06:38:03;;;;;;;0.80;0.80;;;;;;;;;;5056762;28;20195;-59
2022/06/03 06:40:40;;;;;;;0.88;0.88;;;;;;;;;;5090275;28;20711;-58
2022/06/03 06:43:10;;;;;;;2.67;0.80;;;;;;;;;;5090509;28;20221;-59
2022/06/03 06:45:45;;;;;;;0.52;0.52;;;;;;;;;;5090435;28;20206;-59
2022/06/03 06:48:15;;;;;;;0.80;0.80;;;;;;;;;;5089889;28;20332;-59
2022/06/03 06:50:45;;;;;;;0.90;0.90;;;;;;;;;;5090246;28;20220;-59
2022/06/03 06:53:16;;;;;;;0.68;0.68;;;;;;;;;;5089970;28;20206;-59
2022/06/03 06:55:54;;;;;;;0.73;0.73;;;;;;;;;;5089929;28;20213;-59
2022/06/03 06:58:31;;;;;;;1.40;0.52;;;;;;;;;;5090165;28;20213;-59
2022/06/03 07:00:58;;;;;;;2.45;0.82;;;;;;;;;;5090193;28;20260;-58
2022/06/03 07:03:41;;;;;;;0.60;0.60;;;;;;;;;;5090046;28;20660;-59
2022/06/03 07:06:12;;;;;;;0.60;0.60;;;;;;;;;;5090096;28;20217;-59
2022/06/03 07:08:44;;;;;;;0.73;0.73;;;;;;;;;;5089012;28;20229;-58
2022/06/03 07:11:14;;;;;;;0.80;0.80;;;;;;;;;;5088482;28;20225;-58
2022/06/03 07:13:45;;;;;;;0.98;0.98;;;;;;;;;;5089387;28;20213;-63
2022/06/03 07:19:47;;;;;;;0.90;0.90;;;;;;;;;;5089395;28;20267;-60
2022/06/03 07:22:01;;;;;;;0.80;0.80;;;;;;;;;;5072177;28;20206;-60
2022/06/03 07:24:39;;;;;;;2.03;1.00;;;;;;;;;;5089684;28;20217;-61
2022/06/03 07:27:09;;;;;;;0.85;0.85;;;;;;;;;;5089119;28;20230;-60
2022/06/03 07:29:42;;;;;;;1.10;0.77;;;;;;;;;;5089401;28;20218;-60
2022/06/03 07:32:12;;;;;;;0.90;0.90;;;;;;;;;;5089032;28;20263;-60
2022/06/03 07:34:43;;;;;;;1.38;0.80;;;;;;;;;;5089119;28;20213;-61
2022/06/03 07:37:11;;;;;;;0.80;0.80;;;;;;;;;;5087182;28;20233;-60
2022/06/03 07:39:48;;;;;;;3.20;0.80;;;;;;;;;;5089215;28;20209;-61
2022/06/03 07:42:19;;;;;;;0.65;0.65;;;;;;;;;;5089353;28;20314;-60
2022/06/03 07:44:50;;;;;;;2.17;0.70;;;;;;;;;;5089319;28;20206;-61
2022/06/03 07:47:18;;;;;;;1.30;0.80;;;;;;;;;;5088336;28;20257;-60
2022/06/03 07:49:47;;;;;;;0.70;0.70;;;;;;;;;;5085273;28;20400;-60
2022/06/03 07:52:16;;;;;;;0.63;0.63;;;;;;;;;;5088536;28;20221;-61
2022/06/03 07:54:51;;;;;;;2.45;0.93;;;;;;;;;;5088087;28;20353;-59
2022/06/03 07:57:22;;;;;;;0.80;0.80;;;;;;;;;;5088825;28;20221;-59
2022/06/03 07:59:50;;;;;;;1.20;0.90;;;;;;;;;;5088656;28;20206;-59
2022/06/03 08:02:18;;;;;;;0.90;0.90;;;;;;;;;;5088432;28;20206;-60
2022/06/03 08:04:47;;;;;;;3.70;0.82;;;;;;;;;;5088228;28;20198;-60
2022/06/03 08:12:56;;;;;;;2.38;0.80;;;;;;;;;;5088793;28;20566;-59
2022/06/03 08:15:28;;;;;;;0.60;0.60;;;;;;;;;;5088889;28;20221;-59
2022/06/03 08:17:55;;;;;;;0.70;0.70;;;;;;;;;;5088073;28;20666;-60
2022/06/03 08:20:24;;;;;;;0.80;0.80;;;;;;;;;;5088206;28;20194;-62
2022/06/03 08:22:52;;;;;;;0.80;0.80;;;;;;;;;;5088095;28;20209;-60
2022/06/03 08:25:21;;;;;;;0.82;0.82;;;;;;;;;;5085326;28;20568;-60
2022/06/03 08:27:49;;;;;;;0.90;0.90;;;;;;;;;;5085776;28;20225;-60
2022/06/03 08:30:20;;;;;;;0.70;0.70;;;;;;;;;;5087871;28;20206;-60
2022/06/03 08:32:50;;;;;;;0.88;0.88;;;;;;;;;;5087830;28;20206;-60
2022/06/03 08:35:19;;;;;;;1.38;1.30;;;;;;;;;;5087339;28;20595;-63
2022/06/03 08:37:48;;;;;;;1.17;1.17;;;;;;;;;;5087269;28;20202;-59
2022/06/03 08:40:19;;;;;;;1.02;0.98;;;;;;;;;;5093979;28;20210;-59
2022/06/03 08:42:50;;;;;;;0.80;0.80;;;;;;;;;;5088152;28;20232;-59
2022/06/03 08:45:22;;;;;;;1.13;1.00;;;;;;;;;;5087987;28;20203;-59
2022/06/03 08:47:52;;;;;;;0.85;0.85;;;;;;;;;;5076446;28;20583;-59
2022/06/03 08:50:28;;;;;;;1.13;1.13;;;;;;;;;;5067653;28;20211;-60
2022/06/03 08:52:59;;;;;;;0.90;0.90;;;;;;;;;;5067711;28;20214;-59
2022/06/03 08:55:32;;;;;;;1.27;0.90;;;;;;;;;;5067620;28;20222;-60
2022/06/03 08:58:03;;;;;;;0.90;0.90;;;;;;;;;;5074252;28;20591;-60
2022/06/03 09:00:34;;;;;;;1.38;1.00;;;;;;;;;;5087898;28;20247;-60
2022/06/03 09:03:04;;;;;;;1.10;1.02;;;;;;;;;;5087750;28;20210;-60
2022/06/03 09:05:33;;;;;;;2.67;0.98;;;;;;;;;;5087469;28;20210;-60
2022/06/03 09:08:02;;;;;;;1.00;0.80;;;;;;;;;;5086834;28;20744;-59
2022/06/03 09:10:32;;;;;;;2.28;1.00;;;;;;;;;;5086902;28;20206;-60
2022/06/03 09:13:01;;;;;;;1.00;1.00;;;;;;;;;;5086855;28;20218;-60
2022/06/03 09:15:30;;;;;;;1.02;1.02;;;;;;;;;;5086924;28;20218;-60
2022/06/03 09:18:00;;;;;;;0.95;0.95;;;;;;;;;;5086911;28;20206;-61
2022/06/03 09:20:30;;;;;;;0.90;0.90;;;;;;;;;;5086622;28;20246;-61
2022/06/03 09:22:59;;;;;;;0.90;0.90;;;;;;;;;;5086573;28;20210;-61
2022/06/03 09:25:27;;;;;;;0.93;0.93;;;;;;;;;;5085665;28;20214;-60
2022/06/03 09:27:54;;;;;;;1.08;1.08;;;;;;;;;;5086823;28;20206;-61
2022/06/03 09:30:27;;;;;;;3.10;1.20;;;;;;;;;;5087234;28;20838;-60
2022/06/03 09:32:57;;;;;;;1.10;1.10;;;;;;;;;;5086252;28;20203;-60
2022/06/03 09:35:27;;;;;;;1.10;1.10;;;;;;;;;;5087642;28;20210;-61
2022/06/03 09:37:58;;;;;;;1.10;1.10;;;;;;;;;;5089190;28;20210;-60
2022/06/03 09:40:28;;;;;;;0.98;0.98;;;;;;;;;;5091739;28;20229;-61
2022/06/03 09:42:57;;;;;;;0.90;0.90;;;;;;;;;;5094148;28;20404;-60
2022/06/03 09:45:25;;;;;;;1.92;1.38;;;;;;;;;;5088699;28;20206;-60
2022/06/03 09:47:52;;;;;;;1.30;1.30;;;;;;;;;;5089985;28;20242;-60
2022/06/03 09:50:22;;;;;;;1.42;1.20;;;;;;;;;;5090264;28;20241;-60
2022/06/03 09:52:50;;;;;;;1.35;1.20;;;;;;;;;;5090416;28;20224;-60
2022/06/03 09:55:26;;;;;;;2.55;1.27;;;;;;;;;;5090345;28;20602;-60
2022/06/03 09:57:55;;;;;;;1.30;1.30;;;;;;;;;;5085583;28;20221;-60
2022/06/03 10:00:24;;;;;;;1.20;1.20;;;;;;;;;;5091955;28;20207;-60
2022/06/03 10:02:52;;;;;;;1.83;1.40;;;;;;;;;;5090276;28;20224;-61
2022/06/03 10:05:20;;;;;;;1.17;1.17;;;;;;;;;;5090123;28;20643;-62
2022/06/03 10:07:48;;;;;;;1.25;1.25;;;;;;;;;;5089819;28;20207;-62
2022/06/03 10:13:04;;;;;;;1.52;1.52;;;;;;;;;;5090413;28;20672;-62
2022/06/03 10:15:42;;;;;;;1.65;1.65;;;;;;;;;;5090012;28;20210;-62
2022/06/03 10:18:16;;;;;;;1.23;1.17;;;;;;;;;;5090071;28;20209;-62
2022/06/03 10:20:43;;;;;;;1.98;1.30;;;;;;;;;;5089660;28;20910;-61
2022/06/03 10:23:10;;;;;;;1.20;1.20;;;;;;;;;;5088772;28;20739;-62
2022/06/03 10:25:39;;;;;;;1.27;1.27;;;;;;;;;;5089831;28;20222;-62
2022/06/03 10:28:07;;;;;;;1.15;1.15;;;;;;;;;;5089409;28;20207;-62
2022/06/03 10:30:37;;;;;;;1.20;1.20;;;;;;;;;;5089224;28;20210;-62
2022/06/03 10:33:05;;;;;;;1.40;1.30;;;;;;;;;;5088923;28;20199;-61
2022/06/03 10:35:38;;;;;;;1.30;1.27;;;;;;;;;;5089233;28;20253;-62
2022/06/03 10:38:06;;;;;;;1.30;1.27;;;;;;;;;;5089035;28;20198;-62
2022/06/03 10:40:33;;;;;;;1.17;1.17;;;;;;;;;;5089160;28;20217;-62
2022/06/03 10:43:03;;;;;;;1.38;1.27;;;;;;;;;;5088719;28;20210;-62
2022/06/03 10:45:31;;;;;;;1.42;1.42;;;;;;;;;;5089097;28;20621;-61
2022/06/03 10:47:58;;;;;;;1.02;1.02;;;;;;;;;;5088249;28;20233;-61
2022/06/03 10:50:30;;;;;;;1.02;1.02;;;;;;;;;;5091704;28;20226;-62
2022/06/03 11:01:30;;;;;;;1.25;1.25;;;;;;;;;;5089122;28;20805;-62
2022/06/03 11:03:57;;;;;;;1.35;1.35;;;;;;;;;;5088879;28;20280;-62
2022/06/03 11:06:25;;;;;;;1.20;1.20;;;;;;;;;;5088258;28;20202;-60
2022/06/03 11:08:53;;;;;;;1.35;1.30;;;;;;;;;;5088814;28;20218;-60
2022/06/03 11:11:38;;;;;;;1.17;1.17;;;;;;;;;;5088945;28;20218;-60
2022/06/03 11:14:30;;;;;;;1.60;1.50;;;;;;;;;;5088574;28;20209;-60
2022/06/03 11:17:01;;;;;;;1.63;1.45;;;;;;;;;;5088080;28;20302;-60
2022/06/03 11:19:31;;;;;;;1.50;1.50;;;;;;;;;;5088658;28;20202;-60
2022/06/03 11:22:18;;;;;;;2.08;1.92;;;;;;;;;;5091625;28;20207;-60
2022/06/03 11:24:49;;;;;;;1.60;1.50;;;;;;;;;;5104876;28;20217;-61
2022/06/03 11:27:17;;;;;;;1.80;1.70;;;;;;;;;;5086087;28;20209;-60
2022/06/03 11:29:46;;;;;;;1.70;1.70;;;;;;;;;;5088219;28;20287;-60
2022/06/03 11:32:14;;;;;;;2.05;1.70;;;;;;;;;;5088755;28;20205;-60
2022/06/03 11:34:43;;;;;;;1.30;1.30;;;;;;;;;;5101460;28;20213;-60
2022/06/03 11:37:12;;;;;;;1.50;1.40;;;;;;;;;;5109105;28;20232;-60
2022/06/03 11:39:41;;;;;;;1.85;1.75;;;;;;;;;;5109386;28;20201;-60
2022/06/03 11:42:11;;;;;;;1.40;1.40;;;;;;;;;;5109522;28;20218;-60
2022/06/03 11:44:40;;;;;;;1.52;1.52;;;;;;;;;;5098569;28;20210;-60
2022/06/03 11:47:12;;;;;;;2.88;1.45;;;;;;;;;;5088496;28;20234;-60
2022/06/03 11:49:40;;;;;;;1.40;1.40;;;;;;;;;;5088862;28;20234;-60
2022/06/03 11:52:07;;;;;;;1.70;1.67;;;;;;;;;;5088882;28;20226;-59
2022/06/03 11:54:34;;;;;;;1.48;1.48;;;;;;;;;;5088641;28;20230;-58
2022/06/03 11:57:02;;;;;;;1.77;1.70;;;;;;;;;;5087872;28;20296;-57
2022/06/03 11:59:34;;;;;;;2.10;2.00;;;;;;;;;;5088363;28;20268;-58
2022/06/03 12:02:04;;;;;;;1.65;1.65;;;;;;;;;;5088531;28;20218;-59
2022/06/03 12:04:36;;;;;;;1.55;1.55;;;;;;;;;;5088515;28;20319;-59
2022/06/03 12:07:08;;;;;;;1.83;1.73;;;;;;;;;;5086101;28;20206;-59
2022/06/03 12:09:45;;;;;;;1.58;1.58;;;;;;;;;;5087707;28;20225;-63
2022/06/03 12:15:27;;;;;;;1.50;1.50;;;;;;;;;;5086524;28;20329;-59
2022/06/03 12:17:55;;;;;;;1.85;1.65;;;;;;;;;;5086629;28;20198;-58
2022/06/03 12:20:51;;;;;;;1.52;1.52;;;;;;;;;;5086560;28;20203;-58
2022/06/03 12:23:37;;;;;;;1.50;1.50;;;;;;;;;;5087908;28;20205;-58
2022/06/03 12:26:08;;;;;;;1.70;1.60;;;;;;;;;;5088356;28;20206;-58
2022/06/03 12:28:42;;;;;;;1.70;1.70;;;;;;;;;;5088113;28;20209;-59
2022/06/03 12:31:13;;;;;;;1.90;1.90;;;;;;;;;;5088556;28;20241;-59
2022/06/03 12:33:45;;;;;;;1.75;1.75;;;;;;;;;;5088172;28;20203;-59
2022/06/03 12:36:27;;;;;;;1.90;1.90;;;;;;;;;;5086957;28;20218;-60
2022/06/03 12:38:57;;;;;;;1.88;1.88;;;;;;;;;;5087172;28;20668;-62
2022/06/03 12:41:42;;;;;;;1.58;1.58;;;;;;;;;;5088081;28;20677;-61
2022/06/03 12:44:10;;;;;;;1.98;1.88;;;;;;;;;;5087913;28;20202;-61
2022/06/03 12:46:41;;;;;;;1.88;1.88;;;;;;;;;;5097057;28;20209;-61
2022/06/03 12:49:19;;;;;;;2.10;2.00;;;;;;;;;;5098474;28;20218;-60
2022/06/03 12:52:01;;;;;;;2.20;1.95;;;;;;;;;;5105525;28;20280;-61
2022/06/03 12:54:31;;;;;;;2.17;1.80;;;;;;;;;;5090337;28;20323;-60
2022/06/03 12:57:02;;;;;;;1.80;1.80;;;;;;;;;;5096391;28;20210;-60
2022/06/03 12:59:32;;;;;;;2.00;2.00;;;;;;;;;;5094673;28;20209;-61
2022/06/03 13:02:04;;;;;;;2.17;2.08;;;;;;;;;;5085198;28;20194;-60
2022/06/03 13:05:07;;;;;;;1.70;1.70;;;;;;;;;;5087586;28;20233;-61
2022/06/03 13:07:39;;;;;;;1.90;1.70;;;;;;;;;;5093248;28;20292;-62
2022/06/03 13:10:27;;;;;;;1.98;1.90;;;;;;;;;;5087380;28;20229;-59
2022/06/03 13:12:55;;;;;;;2.00;1.90;;;;;;;;;;5082534;28;20213;-62
2022/06/03 13:15:42;;;;;;;2.13;2.10;;;;;;;;;;5091861;28;20206;-59
2022/06/03 13:18:13;;;;;;;2.10;2.10;;;;;;;;;;5097634;28;20205;-58
2022/06/03 13:20:41;;;;;;;3.92;1.80;;;;;;;;;;5093106;28;20229;-58
2022/06/03 13:23:32;;;;;;;2.08;2.03;;;;;;;;;;5088136;28;20646;-58
2022/06/03 13:26:14;;;;;;;2.45;2.25;;;;;;;;;;5087040;28;20214;-58
2022/06/03 13:28:43;;;;;;;2.38;2.17;;;;;;;;;;5082034;28;20214;-59
2022/06/03 13:31:16;;;;;;;1.90;1.90;;;;;;;;;;5086414;28;20235;-58
2022/06/03 13:34:03;;;;;;;2.20;1.95;;;;;;;;;;5098568;28;20198;-58
2022/06/03 13:36:31;;;;;;;1.60;1.60;;;;;;;;;;5099553;28;20234;-58
2022/06/03 13:38:58;;;;;;;2.10;2.00;;;;;;;;;;5088334;28;20343;-58
2022/06/03 13:44:18;;;;;;;2.63;2.10;;;;;;;;;;5083179;28;20540;-60
2022/06/03 13:46:48;;;;;;;1.58;1.58;;;;;;;;;;5100159;28;20237;-61
2022/06/03 13:49:24;;;;;;;1.92;1.88;;;;;;;;;;5086941;28;20207;-61
2022/06/03 13:51:54;;;;;;;1.90;1.90;;;;;;;;;;5086940;28;20214;-61
2022/06/03 13:54:23;;;;;;;2.10;2.00;;;;;;;;;;5086173;28;20774;-62
2022/06/03 13:56:55;;;;;;;2.20;2.10;;;;;;;;;;5087325;28;20210;-61
2022/06/03 13:59:25;;;;;;;2.35;1.75;;;;;;;;;;5085141;28;20287;-62
2022/06/03 14:01:53;;;;;;;1.95;1.77;;;;;;;;;;5075777;28;20206;-65
2022/06/03 14:04:22;;;;;;;2.00;2.00;;;;;;;;;;5086619;28;20213;-61
2022/06/03 14:06:54;;;;;;;1.90;1.90;;;;;;;;;;5087125;28;20210;-60
2022/06/03 14:09:23;;;;;;;2.50;1.90;;;;;;;;;;5088918;28;20198;-60
2022/06/03 14:11:55;;;;;;;3.75;2.15;;;;;;;;;;5086065;28;20664;-60
2022/06/03 14:14:28;;;;;;;1.83;1.83;;;;;;;;;;5084078;28;20297;-61
2022/06/03 14:17:00;;;;;;;1.90;1.80;;;;;;;;;;5087291;28;20214;-60
2022/06/03 14:19:32;;;;;;;1.83;1.73;;;;;;;;;;5086067;28;20206;-61
2022/06/03 14:22:03;;;;;;;2.10;2.00;;;;;;;;;;5087719;28;20306;-61
2022/06/03 14:24:32;;;;;;;2.38;1.95;;;;;;;;;;5086578;28;20279;-61
2022/06/03 14:27:03;;;;;;;2.47;2.20;;;;;;;;;;5096013;28;20209;-61
2022/06/03 14:29:33;;;;;;;2.30;1.92;;;;;;;;;;5082021;28;20644;-58
2022/06/03 14:32:03;;;;;;;1.90;1.90;;;;;;;;;;5084639;28;20213;-60
2022/06/03 14:34:32;;;;;;;2.13;2.08;;;;;;;;;;5098711;28;20291;-57
2022/06/03 14:37:01;;;;;;;2.97;2.17;;;;;;;;;;5084553;28;20230;-58
2022/06/03 14:39:30;;;;;;;3.28;2.15;;;;;;;;;;5082878;28;20202;-58
2022/06/03 14:42:00;;;;;;;2.30;2.10;;;;;;;;;;5089438;28;20237;-57
2022/06/03 14:44:28;;;;;;;2.40;2.30;;;;;;;;;;5071211;28;20205;-58
2022/06/03 14:46:58;;;;;;;2.70;2.42;;;;;;;;;;5094696;28;20248;-58
2022/06/03 14:49:28;;;;;;;2.30;2.20;;;;;;;;;;5089273;28;20642;-58
2022/06/03 14:51:57;;;;;;;2.17;2.10;;;;;;;;;;5086257;28;20206;-58
2022/06/03 14:54:26;;;;;;;3.40;2.35;;;;;;;;;;5086140;28;20210;-59
2022/06/03 14:56:54;;;;;;;2.90;2.70;;;;;;;;;;5086081;28;20257;-58
2022/06/03 14:59:27;;;;;;;2.35;2.25;;;;;;;;;;5090169;28;20209;-58
2022/06/03 15:01:59;;;;;;;2.80;2.58;;;;;;;;;;5081667;28;20206;-73
2022/06/03 15:04:28;;;;;;;2.38;2.38;;;;;;;;;;5087718;28;20202;-63
2022/06/03 15:06:57;;;;;;;2.47;2.38;;;;;;;;;;5085399;28;20213;-60
2022/06/03 15:09:27;;;;;;;2.00;2.00;;;;;;;;;;5084832;28;20203;-60
2022/06/03 15:11:59;;;;;;;5.45;2.10;;;;;;;;;;5085764;28;20202;-61
2022/06/03 15:14:26;;;;;;;2.55;2.40;;;;;;;;;;5087160;28;20213;-60
2022/06/03 15:16:58;;;;;;;2.20;2.10;;;;;;;;;;5084554;28;20568;-62
2022/06/03 15:19:50;;;;;;;2.08;2.08;;;;;;;;;;5087093;28;20206;-61
2022/06/03 15:22:20;;;;;;;2.25;2.25;;;;;;;;;;5066950;28;20273;-63
2022/06/03 15:24:53;;;;;;;2.67;2.47;;;;;;;;;;5093824;28;20237;-61
2022/06/03 15:27:23;;;;;;;4.43;2.70;;;;;;;;;;5085294;28;20672;-62
2022/06/03 15:29:52;;;;;;;3.10;2.90;;;;;;;;;;5098681;28;20379;-62
2022/06/03 15:32:19;;;;;;;4.43;3.17;;;;;;;;;;5105454;28;20216;-62
2022/06/03 15:34:47;;;;;;;5.43;3.15;;;;;;;;;;5105943;28;20217;-60
2022/06/03 15:37:14;;;;;;;3.70;3.50;;;;;;;;;;5086873;28;20237;-58
2022/06/03 15:39:44;;;;;;;3.50;3.20;;;;;;;;;;5086067;28;20356;-60
2022/06/03 15:42:12;;;;;;;2.83;2.65;;;;;;;;;;5085637;28;20259;-58
2022/06/03 15:44:40;;;;;;;24.42;6.60;;;;;;;;;;5085382;28;20206;-60
2022/06/03 15:47:11;;;;;;;8.57;4.22;;;;;;;;;;5086671;28;20245;-59
2022/06/03 15:49:38;;;;;;;13.02;3.85;;;;;;;;;;5085850;28;20210;-59
2022/06/03 15:52:09;;;;;;;10.57;4.32;;;;;;;;;;5088098;28;20207;-64
2022/06/03 15:54:37;;;;;;;12.00;6.70;;;;;;;;;;5090154;28;20214;-61
2022/06/03 15:57:15;;;;;;;4.20;4.00;;;;;;;;;;5091516;28;20654;-65
2022/06/03 15:59:50;;;;;;;13.18;8.77;;;;;;;;;;5078659;28;20202;-60